sensor_id;sensor_type;location;lat;lon;timestamp;P1;durP1;ratioP1;P2;durP2;ratioP2
7017;SDS011;3549;42.162;24.726;2023-11-18T00:00:57;5.87;;;3.70;;
7017;SDS011;3549;42.162;24.726;2023-11-18T00:03:23;7.80;;;3.70;;
7017;SDS011;3549;42.162;24.726;2023-11-18T00:05:49;5.00;;;3.43;;
7017;SDS011;3549;42.162;24.726;2023-11-18T00:08:15;5.37;;;3.13;;
7017;SDS011;3549;42.162;24.726;2023-11-18T00:10:40;5.53;;;3.57;;
7017;SDS011;3549;42.162;24.726;2023-11-18T00:13:06;5.03;;;3.40;;
7017;SDS011;3549;42.162;24.726;2023-11-18T00:15:31;5.77;;;3.50;;
7017;SDS011;3549;42.162;24.726;2023-11-18T00:17:59;5.77;;;3.50;;
7017;SDS011;3549;42.162;24.726;2023-11-18T00:20:25;4.87;;;3.20;;
7017;SDS011;3549;42.162;24.726;2023-11-18T00:22:50;4.60;;;3.10;;
7017;SDS011;3549;42.162;24.726;2023-11-18T00:25:17;3.90;;;2.80;;
7017;SDS011;3549;42.162;24.726;2023-11-18T00:27:43;4.43;;;2.90;;
7017;SDS011;3549;42.162;24.726;2023-11-18T00:30:08;3.23;;;2.57;;
7017;SDS011;3549;42.162;24.726;2023-11-18T00:32:36;3.37;;;2.70;;
7017;SDS011;3549;42.162;24.726;2023-11-18T00:35:02;3.70;;;2.53;;
7017;SDS011;3549;42.162;24.726;2023-11-18T00:37:29;3.13;;;2.10;;
7017;SDS011;3549;42.162;24.726;2023-11-18T00:39:55;2.60;;;1.93;;
7017;SDS011;3549;42.162;24.726;2023-11-18T00:42:21;5.17;;;2.43;;
7017;SDS011;3549;42.162;24.726;2023-11-18T00:44:46;2.67;;;2.07;;
7017;SDS011;3549;42.162;24.726;2023-11-18T00:47:12;2.40;;;1.87;;
7017;SDS011;3549;42.162;24.726;2023-11-18T00:49:38;3.17;;;1.87;;
7017;SDS011;3549;42.162;24.726;2023-11-18T00:52:03;3.13;;;2.20;;
7017;SDS011;3549;42.162;24.726;2023-11-18T00:54:29;3.17;;;2.40;;
7017;SDS011;3549;42.162;24.726;2023-11-18T00:56:55;3.67;;;2.50;;
7017;SDS011;3549;42.162;24.726;2023-11-18T00:59:20;3.47;;;2.20;;
7017;SDS011;3549;42.162;24.726;2023-11-18T01:01:46;3.60;;;2.70;;
7017;SDS011;3549;42.162;24.726;2023-11-18T01:04:11;3.63;;;2.87;;
7017;SDS011;3549;42.162;24.726;2023-11-18T01:06:37;5.07;;;3.17;;
7017;SDS011;3549;42.162;24.726;2023-11-18T01:09:02;5.10;;;3.33;;
7017;SDS011;3549;42.162;24.726;2023-11-18T01:11:28;4.63;;;3.50;;
7017;SDS011;3549;42.162;24.726;2023-11-18T01:13:54;4.57;;;3.03;;
7017;SDS011;3549;42.162;24.726;2023-11-18T01:16:21;5.20;;;3.30;;
7017;SDS011;3549;42.162;24.726;2023-11-18T01:18:46;5.87;;;3.80;;
7017;SDS011;3549;42.162;24.726;2023-11-18T01:21:12;5.73;;;4.10;;
7017;SDS011;3549;42.162;24.726;2023-11-18T01:23:37;6.07;;;4.00;;
7017;SDS011;3549;42.162;24.726;2023-11-18T01:26:04;4.70;;;3.30;;
7017;SDS011;3549;42.162;24.726;2023-11-18T01:28:33;5.63;;;3.60;;
7017;SDS011;3549;42.162;24.726;2023-11-18T01:31:04;5.17;;;3.13;;
7017;SDS011;3549;42.162;24.726;2023-11-18T01:33:30;5.00;;;3.53;;
7017;SDS011;3549;42.162;24.726;2023-11-18T01:35:57;3.73;;;2.83;;
7017;SDS011;3549;42.162;24.726;2023-11-18T01:38:23;3.00;;;2.40;;
7017;SDS011;3549;42.162;24.726;2023-11-18T01:40:48;2.60;;;2.23;;
7017;SDS011;3549;42.162;24.726;2023-11-18T01:43:14;2.43;;;1.93;;
7017;SDS011;3549;42.162;24.726;2023-11-18T01:45:42;2.70;;;1.90;;
7017;SDS011;3549;42.162;24.726;2023-11-18T01:48:08;3.20;;;2.43;;
7017;SDS011;3549;42.162;24.726;2023-11-18T01:50:35;2.70;;;2.10;;
7017;SDS011;3549;42.162;24.726;2023-11-18T01:53:02;2.47;;;2.10;;
7017;SDS011;3549;42.162;24.726;2023-11-18T01:55:29;2.47;;;2.10;;
7017;SDS011;3549;42.162;24.726;2023-11-18T01:57:54;1.97;;;1.43;;
7017;SDS011;3549;42.162;24.726;2023-11-18T02:00:21;2.40;;;1.90;;
7017;SDS011;3549;42.162;24.726;2023-11-18T02:02:48;2.43;;;1.60;;
7017;SDS011;3549;42.162;24.726;2023-11-18T02:05:14;2.40;;;1.70;;
7017;SDS011;3549;42.162;24.726;2023-11-18T02:07:41;1.90;;;1.60;;
7017;SDS011;3549;42.162;24.726;2023-11-18T02:10:07;3.17;;;1.40;;
7017;SDS011;3549;42.162;24.726;2023-11-18T02:12:38;2.53;;;1.77;;
7017;SDS011;3549;42.162;24.726;2023-11-18T02:15:13;1.53;;;1.43;;
7017;SDS011;3549;42.162;24.726;2023-11-18T02:17:41;1.57;;;1.33;;
7017;SDS011;3549;42.162;24.726;2023-11-18T02:20:08;2.00;;;1.50;;
7017;SDS011;3549;42.162;24.726;2023-11-18T02:22:44;1.80;;;1.40;;
7017;SDS011;3549;42.162;24.726;2023-11-18T02:25:14;1.57;;;1.33;;
7017;SDS011;3549;42.162;24.726;2023-11-18T02:27:41;3.13;;;1.50;;
7017;SDS011;3549;42.162;24.726;2023-11-18T02:30:07;2.10;;;1.43;;
7017;SDS011;3549;42.162;24.726;2023-11-18T02:32:39;1.47;;;1.37;;
7017;SDS011;3549;42.162;24.726;2023-11-18T02:37:56;1.67;;;1.30;;
7017;SDS011;3549;42.162;24.726;2023-11-18T02:40:29;0.90;;;0.90;;
7017;SDS011;3549;42.162;24.726;2023-11-18T02:42:59;1.30;;;1.20;;
7017;SDS011;3549;42.162;24.726;2023-11-18T02:45:25;2.43;;;1.20;;
7017;SDS011;3549;42.162;24.726;2023-11-18T02:47:52;1.10;;;0.93;;
7017;SDS011;3549;42.162;24.726;2023-11-18T02:50:22;1.40;;;1.00;;
7017;SDS011;3549;42.162;24.726;2023-11-18T02:52:52;1.10;;;1.00;;
7017;SDS011;3549;42.162;24.726;2023-11-18T02:55:18;1.37;;;1.27;;
7017;SDS011;3549;42.162;24.726;2023-11-18T02:57:46;1.63;;;1.30;;
7017;SDS011;3549;42.162;24.726;2023-11-18T03:00:12;1.40;;;1.27;;
7017;SDS011;3549;42.162;24.726;2023-11-18T03:02:43;1.30;;;1.20;;
7017;SDS011;3549;42.162;24.726;2023-11-18T03:05:11;1.90;;;1.20;;
7017;SDS011;3549;42.162;24.726;2023-11-18T03:07:43;1.40;;;1.10;;
7017;SDS011;3549;42.162;24.726;2023-11-18T03:10:14;1.30;;;1.07;;
7017;SDS011;3549;42.162;24.726;2023-11-18T03:12:46;1.13;;;1.00;;
7017;SDS011;3549;42.162;24.726;2023-11-18T03:15:18;1.10;;;1.00;;
7017;SDS011;3549;42.162;24.726;2023-11-18T03:17:46;1.60;;;1.13;;
7017;SDS011;3549;42.162;24.726;2023-11-18T03:20:19;1.27;;;1.10;;
7017;SDS011;3549;42.162;24.726;2023-11-18T03:22:48;2.23;;;1.07;;
7017;SDS011;3549;42.162;24.726;2023-11-18T03:25:15;1.17;;;1.00;;
7017;SDS011;3549;42.162;24.726;2023-11-18T03:27:41;1.30;;;1.10;;
7017;SDS011;3549;42.162;24.726;2023-11-18T03:30:07;1.30;;;1.00;;
7017;SDS011;3549;42.162;24.726;2023-11-18T03:32:34;1.50;;;1.13;;
7017;SDS011;3549;42.162;24.726;2023-11-18T03:35:01;1.23;;;1.10;;
7017;SDS011;3549;42.162;24.726;2023-11-18T03:37:27;1.20;;;1.10;;
7017;SDS011;3549;42.162;24.726;2023-11-18T03:39:53;1.03;;;0.80;;
7017;SDS011;3549;42.162;24.726;2023-11-18T03:42:18;1.20;;;1.10;;
7017;SDS011;3549;42.162;24.726;2023-11-18T03:44:44;1.30;;;1.10;;
7017;SDS011;3549;42.162;24.726;2023-11-18T03:47:12;1.20;;;0.93;;
7017;SDS011;3549;42.162;24.726;2023-11-18T03:49:41;1.20;;;1.00;;
7017;SDS011;3549;42.162;24.726;2023-11-18T03:52:06;1.23;;;1.13;;
7017;SDS011;3549;42.162;24.726;2023-11-18T03:54:32;1.60;;;1.07;;
7017;SDS011;3549;42.162;24.726;2023-11-18T03:56:57;1.83;;;1.33;;
7017;SDS011;3549;42.162;24.726;2023-11-18T03:59:24;1.63;;;1.10;;
7017;SDS011;3549;42.162;24.726;2023-11-18T04:01:50;1.17;;;1.07;;
7017;SDS011;3549;42.162;24.726;2023-11-18T04:04:16;2.47;;;1.27;;
7017;SDS011;3549;42.162;24.726;2023-11-18T04:06:42;2.23;;;1.80;;
7017;SDS011;3549;42.162;24.726;2023-11-18T04:09:07;1.83;;;1.40;;
7017;SDS011;3549;42.162;24.726;2023-11-18T04:11:34;1.30;;;1.20;;
7017;SDS011;3549;42.162;24.726;2023-11-18T04:14:00;1.47;;;1.10;;
7017;SDS011;3549;42.162;24.726;2023-11-18T04:16:25;1.60;;;1.30;;
7017;SDS011;3549;42.162;24.726;2023-11-18T04:18:51;1.70;;;1.40;;
7017;SDS011;3549;42.162;24.726;2023-11-18T04:21:16;1.20;;;1.10;;
7017;SDS011;3549;42.162;24.726;2023-11-18T04:23:43;1.40;;;1.27;;
7017;SDS011;3549;42.162;24.726;2023-11-18T04:26:11;2.60;;;1.60;;
7017;SDS011;3549;42.162;24.726;2023-11-18T04:28:37;1.73;;;1.53;;
7017;SDS011;3549;42.162;24.726;2023-11-18T04:31:03;5.00;;;3.57;;
7017;SDS011;3549;42.162;24.726;2023-11-18T04:33:30;5.03;;;2.20;;
7017;SDS011;3549;42.162;24.726;2023-11-18T04:35:56;3.40;;;2.33;;
7017;SDS011;3549;42.162;24.726;2023-11-18T04:38:25;4.13;;;2.80;;
7017;SDS011;3549;42.162;24.726;2023-11-18T04:40:53;2.47;;;2.00;;
7017;SDS011;3549;42.162;24.726;2023-11-18T04:43:19;2.77;;;1.60;;
7017;SDS011;3549;42.162;24.726;2023-11-18T04:45:45;1.90;;;1.60;;
7017;SDS011;3549;42.162;24.726;2023-11-18T04:48:11;2.20;;;1.93;;
7017;SDS011;3549;42.162;24.726;2023-11-18T04:50:41;2.33;;;1.73;;
7017;SDS011;3549;42.162;24.726;2023-11-18T04:53:07;2.50;;;2.10;;
7017;SDS011;3549;42.162;24.726;2023-11-18T04:55:35;3.37;;;2.50;;
7017;SDS011;3549;42.162;24.726;2023-11-18T04:58:01;2.20;;;1.90;;
7017;SDS011;3549;42.162;24.726;2023-11-18T05:00:26;2.43;;;1.87;;
7017;SDS011;3549;42.162;24.726;2023-11-18T05:02:52;2.73;;;1.97;;
7017;SDS011;3549;42.162;24.726;2023-11-18T05:05:19;2.93;;;2.00;;
7017;SDS011;3549;42.162;24.726;2023-11-18T05:07:44;3.33;;;2.23;;
7017;SDS011;3549;42.162;24.726;2023-11-18T05:10:10;3.43;;;2.60;;
7017;SDS011;3549;42.162;24.726;2023-11-18T05:12:37;2.37;;;1.93;;
7017;SDS011;3549;42.162;24.726;2023-11-18T05:15:03;3.57;;;2.57;;
7017;SDS011;3549;42.162;24.726;2023-11-18T05:17:30;3.37;;;2.53;;
7017;SDS011;3549;42.162;24.726;2023-11-18T05:19:56;4.17;;;2.23;;
7017;SDS011;3549;42.162;24.726;2023-11-18T05:22:21;3.53;;;2.73;;
7017;SDS011;3549;42.162;24.726;2023-11-18T05:24:47;4.63;;;3.27;;
7017;SDS011;3549;42.162;24.726;2023-11-18T05:27:13;2.93;;;2.50;;
7017;SDS011;3549;42.162;24.726;2023-11-18T05:29:39;3.53;;;2.40;;
7017;SDS011;3549;42.162;24.726;2023-11-18T05:32:07;4.57;;;2.93;;
7017;SDS011;3549;42.162;24.726;2023-11-18T05:34:32;4.83;;;2.63;;
7017;SDS011;3549;42.162;24.726;2023-11-18T05:37:00;5.30;;;3.23;;
7017;SDS011;3549;42.162;24.726;2023-11-18T05:39:26;7.60;;;3.03;;
7017;SDS011;3549;42.162;24.726;2023-11-18T05:41:53;3.90;;;2.90;;
7017;SDS011;3549;42.162;24.726;2023-11-18T05:44:21;4.30;;;3.20;;
7017;SDS011;3549;42.162;24.726;2023-11-18T05:46:55;3.40;;;2.80;;
7017;SDS011;3549;42.162;24.726;2023-11-18T05:49:21;6.70;;;4.17;;
7017;SDS011;3549;42.162;24.726;2023-11-18T05:51:49;3.80;;;3.13;;
7017;SDS011;3549;42.162;24.726;2023-11-18T05:54:15;3.60;;;2.80;;
7017;SDS011;3549;42.162;24.726;2023-11-18T05:56:40;4.83;;;3.47;;
7017;SDS011;3549;42.162;24.726;2023-11-18T05:59:06;5.43;;;3.90;;
7017;SDS011;3549;42.162;24.726;2023-11-18T06:01:31;7.50;;;5.07;;
7017;SDS011;3549;42.162;24.726;2023-11-18T06:03:57;5.93;;;3.63;;
7017;SDS011;3549;42.162;24.726;2023-11-18T06:06:22;5.10;;;3.53;;
7017;SDS011;3549;42.162;24.726;2023-11-18T06:08:48;6.60;;;3.97;;
7017;SDS011;3549;42.162;24.726;2023-11-18T06:11:14;4.50;;;3.53;;
7017;SDS011;3549;42.162;24.726;2023-11-18T06:16:14;6.37;;;3.73;;
7017;SDS011;3549;42.162;24.726;2023-11-18T06:18:40;5.03;;;4.13;;
7017;SDS011;3549;42.162;24.726;2023-11-18T06:21:07;4.23;;;3.27;;
7017;SDS011;3549;42.162;24.726;2023-11-18T06:23:36;6.93;;;4.40;;
7017;SDS011;3549;42.162;24.726;2023-11-18T06:26:02;6.37;;;4.93;;
7017;SDS011;3549;42.162;24.726;2023-11-18T06:28:27;6.03;;;3.90;;
7017;SDS011;3549;42.162;24.726;2023-11-18T06:30:53;5.63;;;3.97;;
7017;SDS011;3549;42.162;24.726;2023-11-18T06:33:18;7.33;;;4.53;;
7017;SDS011;3549;42.162;24.726;2023-11-18T06:35:47;4.83;;;3.47;;
7017;SDS011;3549;42.162;24.726;2023-11-18T06:38:13;7.33;;;4.73;;
7017;SDS011;3549;42.162;24.726;2023-11-18T06:40:40;7.27;;;4.60;;
7017;SDS011;3549;42.162;24.726;2023-11-18T06:43:05;10.60;;;5.60;;
7017;SDS011;3549;42.162;24.726;2023-11-18T06:45:36;6.00;;;4.37;;
7017;SDS011;3549;42.162;24.726;2023-11-18T06:48:02;4.83;;;3.53;;
7017;SDS011;3549;42.162;24.726;2023-11-18T06:50:30;4.33;;;3.20;;
7017;SDS011;3549;42.162;24.726;2023-11-18T06:52:57;5.73;;;4.13;;
7017;SDS011;3549;42.162;24.726;2023-11-18T06:55:25;5.63;;;3.93;;
7017;SDS011;3549;42.162;24.726;2023-11-18T06:57:51;8.87;;;4.93;;
7017;SDS011;3549;42.162;24.726;2023-11-18T07:00:17;6.47;;;4.23;;
7017;SDS011;3549;42.162;24.726;2023-11-18T07:02:43;5.93;;;3.80;;
7017;SDS011;3549;42.162;24.726;2023-11-18T07:05:08;3.83;;;2.57;;
7017;SDS011;3549;42.162;24.726;2023-11-18T07:07:34;4.83;;;3.00;;
7017;SDS011;3549;42.162;24.726;2023-11-18T07:10:00;3.23;;;2.80;;
7017;SDS011;3549;42.162;24.726;2023-11-18T07:12:25;3.50;;;2.97;;
7017;SDS011;3549;42.162;24.726;2023-11-18T07:14:50;4.47;;;2.73;;
7017;SDS011;3549;42.162;24.726;2023-11-18T07:17:16;4.00;;;3.00;;
7017;SDS011;3549;42.162;24.726;2023-11-18T07:19:44;5.10;;;3.47;;
7017;SDS011;3549;42.162;24.726;2023-11-18T07:22:10;3.93;;;3.17;;
7017;SDS011;3549;42.162;24.726;2023-11-18T07:24:35;4.37;;;3.37;;
7017;SDS011;3549;42.162;24.726;2023-11-18T07:27:02;4.90;;;3.10;;
7017;SDS011;3549;42.162;24.726;2023-11-18T07:29:30;3.73;;;2.80;;
7017;SDS011;3549;42.162;24.726;2023-11-18T07:31:57;5.13;;;3.57;;
7017;SDS011;3549;42.162;24.726;2023-11-18T07:34:23;4.57;;;2.93;;
7017;SDS011;3549;42.162;24.726;2023-11-18T07:36:48;3.10;;;2.33;;
7017;SDS011;3549;42.162;24.726;2023-11-18T07:39:15;7.63;;;2.77;;
7017;SDS011;3549;42.162;24.726;2023-11-18T07:41:41;4.30;;;2.83;;
7017;SDS011;3549;42.162;24.726;2023-11-18T07:44:07;4.60;;;3.27;;
7017;SDS011;3549;42.162;24.726;2023-11-18T07:46:35;17.23;;;7.43;;
7017;SDS011;3549;42.162;24.726;2023-11-18T07:49:03;6.47;;;4.33;;
7017;SDS011;3549;42.162;24.726;2023-11-18T07:51:29;4.37;;;3.30;;
7017;SDS011;3549;42.162;24.726;2023-11-18T07:53:55;5.30;;;3.17;;
7017;SDS011;3549;42.162;24.726;2023-11-18T07:56:20;4.60;;;1.90;;
7017;SDS011;3549;42.162;24.726;2023-11-18T07:58:47;2.40;;;2.00;;
7017;SDS011;3549;42.162;24.726;2023-11-18T08:01:13;5.50;;;2.60;;
7017;SDS011;3549;42.162;24.726;2023-11-18T08:03:41;4.03;;;2.20;;
7017;SDS011;3549;42.162;24.726;2023-11-18T08:06:07;3.17;;;2.20;;
7017;SDS011;3549;42.162;24.726;2023-11-18T08:08:36;16.10;;;7.07;;
7017;SDS011;3549;42.162;24.726;2023-11-18T08:11:06;49.37;;;12.30;;
7017;SDS011;3549;42.162;24.726;2023-11-18T08:13:31;7.87;;;4.40;;
7017;SDS011;3549;42.162;24.726;2023-11-18T08:15:57;6.87;;;3.20;;
7017;SDS011;3549;42.162;24.726;2023-11-18T08:18:23;3.10;;;2.47;;
7017;SDS011;3549;42.162;24.726;2023-11-18T08:20:49;2.33;;;1.67;;
7017;SDS011;3549;42.162;24.726;2023-11-18T08:23:15;3.70;;;2.00;;
7017;SDS011;3549;42.162;24.726;2023-11-18T08:25:40;4.90;;;2.00;;
7017;SDS011;3549;42.162;24.726;2023-11-18T08:28:07;2.63;;;2.33;;
7017;SDS011;3549;42.162;24.726;2023-11-18T08:30:33;3.07;;;2.67;;
7017;SDS011;3549;42.162;24.726;2023-11-18T08:33:02;3.17;;;1.83;;
7017;SDS011;3549;42.162;24.726;2023-11-18T08:35:29;6.03;;;2.87;;
7017;SDS011;3549;42.162;24.726;2023-11-18T08:37:56;5.47;;;2.77;;
7017;SDS011;3549;42.162;24.726;2023-11-18T08:40:22;5.73;;;1.63;;
7017;SDS011;3549;42.162;24.726;2023-11-18T08:42:48;1.57;;;1.47;;
7017;SDS011;3549;42.162;24.726;2023-11-18T08:47:58;4.97;;;1.90;;
7017;SDS011;3549;42.162;24.726;2023-11-18T08:50:32;9.30;;;3.30;;
7017;SDS011;3549;42.162;24.726;2023-11-18T08:52:59;4.40;;;2.90;;
7017;SDS011;3549;42.162;24.726;2023-11-18T08:55:28;3.20;;;2.50;;
7017;SDS011;3549;42.162;24.726;2023-11-18T08:58:08;6.70;;;3.33;;
7017;SDS011;3549;42.162;24.726;2023-11-18T09:00:53;7.10;;;3.73;;
7017;SDS011;3549;42.162;24.726;2023-11-18T09:03:30;9.00;;;4.50;;
7017;SDS011;3549;42.162;24.726;2023-11-18T09:06:02;7.13;;;3.10;;
7017;SDS011;3549;42.162;24.726;2023-11-18T09:08:36;3.40;;;1.93;;
7017;SDS011;3549;42.162;24.726;2023-11-18T09:11:14;2.23;;;1.90;;
7017;SDS011;3549;42.162;24.726;2023-11-18T09:13:41;2.60;;;1.70;;
7017;SDS011;3549;42.162;24.726;2023-11-18T09:16:08;2.67;;;1.70;;
7017;SDS011;3549;42.162;24.726;2023-11-18T09:18:34;7.17;;;2.13;;
7017;SDS011;3549;42.162;24.726;2023-11-18T09:21:04;1.93;;;1.73;;
7017;SDS011;3549;42.162;24.726;2023-11-18T09:23:32;3.27;;;1.67;;
7017;SDS011;3549;42.162;24.726;2023-11-18T09:26:02;2.00;;;1.77;;
7017;SDS011;3549;42.162;24.726;2023-11-18T09:28:32;2.90;;;2.40;;
7017;SDS011;3549;42.162;24.726;2023-11-18T09:31:00;1.73;;;1.63;;
7017;SDS011;3549;42.162;24.726;2023-11-18T09:33:28;4.07;;;1.63;;
7017;SDS011;3549;42.162;24.726;2023-11-18T09:38:31;2.53;;;1.70;;
7017;SDS011;3549;42.162;24.726;2023-11-18T09:41:00;2.20;;;1.90;;
7017;SDS011;3549;42.162;24.726;2023-11-18T09:43:28;4.23;;;2.20;;
7017;SDS011;3549;42.162;24.726;2023-11-18T09:45:59;2.27;;;1.90;;
7017;SDS011;3549;42.162;24.726;2023-11-18T09:48:48;3.23;;;1.93;;
7017;SDS011;3549;42.162;24.726;2023-11-18T09:51:26;1.97;;;1.67;;
7017;SDS011;3549;42.162;24.726;2023-11-18T09:53:58;3.70;;;2.47;;
7017;SDS011;3549;42.162;24.726;2023-11-18T09:56:35;6.17;;;3.20;;
7017;SDS011;3549;42.162;24.726;2023-11-18T10:01:53;1.97;;;1.77;;
7017;SDS011;3549;42.162;24.726;2023-11-18T10:04:23;1.70;;;1.60;;
7017;SDS011;3549;42.162;24.726;2023-11-18T10:06:52;4.60;;;2.87;;
7017;SDS011;3549;42.162;24.726;2023-11-18T10:09:19;4.70;;;2.47;;
7017;SDS011;3549;42.162;24.726;2023-11-18T10:11:53;5.47;;;2.23;;
7017;SDS011;3549;42.162;24.726;2023-11-18T10:14:25;2.10;;;1.90;;
7017;SDS011;3549;42.162;24.726;2023-11-18T10:16:57;3.53;;;1.83;;
7017;SDS011;3549;42.162;24.726;2023-11-18T10:19:49;3.53;;;2.27;;
7017;SDS011;3549;42.162;24.726;2023-11-18T10:22:21;3.40;;;1.60;;
7017;SDS011;3549;42.162;24.726;2023-11-18T10:24:51;2.87;;;2.37;;
7017;SDS011;3549;42.162;24.726;2023-11-18T10:27:20;2.00;;;1.87;;
7017;SDS011;3549;42.162;24.726;2023-11-18T10:29:50;2.20;;;2.00;;
7017;SDS011;3549;42.162;24.726;2023-11-18T10:32:19;3.67;;;2.53;;
7017;SDS011;3549;42.162;24.726;2023-11-18T10:34:47;3.40;;;2.00;;
7017;SDS011;3549;42.162;24.726;2023-11-18T10:37:16;2.13;;;1.80;;
7017;SDS011;3549;42.162;24.726;2023-11-18T10:39:46;2.97;;;2.13;;
7017;SDS011;3549;42.162;24.726;2023-11-18T10:42:16;3.13;;;1.67;;
7017;SDS011;3549;42.162;24.726;2023-11-18T10:44:54;5.10;;;2.20;;
7017;SDS011;3549;42.162;24.726;2023-11-18T10:47:26;3.60;;;2.70;;
7017;SDS011;3549;42.162;24.726;2023-11-18T10:49:52;3.07;;;2.30;;
7017;SDS011;3549;42.162;24.726;2023-11-18T10:52:21;2.67;;;2.10;;
7017;SDS011;3549;42.162;24.726;2023-11-18T10:54:57;2.37;;;1.93;;
7017;SDS011;3549;42.162;24.726;2023-11-18T10:57:23;4.67;;;2.03;;
7017;SDS011;3549;42.162;24.726;2023-11-18T11:00:05;3.00;;;2.00;;
7017;SDS011;3549;42.162;24.726;2023-11-18T11:02:44;4.07;;;2.93;;
7017;SDS011;3549;42.162;24.726;2023-11-18T11:05:10;2.30;;;1.93;;
7017;SDS011;3549;42.162;24.726;2023-11-18T11:07:42;2.43;;;1.90;;
7017;SDS011;3549;42.162;24.726;2023-11-18T11:10:08;2.90;;;2.10;;
7017;SDS011;3549;42.162;24.726;2023-11-18T11:12:36;3.00;;;2.00;;
7017;SDS011;3549;42.162;24.726;2023-11-18T11:15:17;11.70;;;4.47;;
7017;SDS011;3549;42.162;24.726;2023-11-18T11:17:53;2.63;;;2.33;;
7017;SDS011;3549;42.162;24.726;2023-11-18T11:20:21;4.67;;;2.40;;
7017;SDS011;3549;42.162;24.726;2023-11-18T11:22:59;5.90;;;2.50;;
7017;SDS011;3549;42.162;24.726;2023-11-18T11:28:19;2.37;;;2.00;;
7017;SDS011;3549;42.162;24.726;2023-11-18T11:30:55;2.63;;;1.90;;
7017;SDS011;3549;42.162;24.726;2023-11-18T11:33:29;4.33;;;2.47;;
7017;SDS011;3549;42.162;24.726;2023-11-18T11:36:05;3.87;;;2.70;;
7017;SDS011;3549;42.162;24.726;2023-11-18T11:38:37;7.70;;;3.13;;
7017;SDS011;3549;42.162;24.726;2023-11-18T11:41:06;7.43;;;4.10;;
7017;SDS011;3549;42.162;24.726;2023-11-18T11:43:34;4.03;;;2.80;;
7017;SDS011;3549;42.162;24.726;2023-11-18T11:46:00;2.73;;;1.90;;
7017;SDS011;3549;42.162;24.726;2023-11-18T11:48:35;3.00;;;1.80;;
7017;SDS011;3549;42.162;24.726;2023-11-18T11:51:04;2.40;;;2.00;;
7017;SDS011;3549;42.162;24.726;2023-11-18T11:56:45;3.00;;;2.20;;
7017;SDS011;3549;42.162;24.726;2023-11-18T12:02:09;4.83;;;2.33;;
7017;SDS011;3549;42.162;24.726;2023-11-18T12:04:36;3.43;;;2.10;;
7017;SDS011;3549;42.162;24.726;2023-11-18T12:07:06;3.80;;;2.57;;
7017;SDS011;3549;42.162;24.726;2023-11-18T12:09:34;6.33;;;2.20;;
7017;SDS011;3549;42.162;24.726;2023-11-18T12:12:04;4.67;;;2.80;;
7017;SDS011;3549;42.162;24.726;2023-11-18T12:14:56;3.07;;;2.40;;
7017;SDS011;3549;42.162;24.726;2023-11-18T12:17:25;3.40;;;2.30;;
7017;SDS011;3549;42.162;24.726;2023-11-18T12:19:57;4.20;;;2.50;;
7017;SDS011;3549;42.162;24.726;2023-11-18T12:23:02;4.97;;;2.80;;
7017;SDS011;3549;42.162;24.726;2023-11-18T12:25:39;3.90;;;3.00;;
7017;SDS011;3549;42.162;24.726;2023-11-18T12:28:08;4.07;;;2.63;;
7017;SDS011;3549;42.162;24.726;2023-11-18T12:33:03;3.70;;;2.40;;
7017;SDS011;3549;42.162;24.726;2023-11-18T12:41:38;5.13;;;3.07;;
7017;SDS011;3549;42.162;24.726;2023-11-18T12:44:29;5.17;;;3.10;;
7017;SDS011;3549;42.162;24.726;2023-11-18T12:47:03;4.00;;;2.90;;
7017;SDS011;3549;42.162;24.726;2023-11-18T12:49:46;6.60;;;4.10;;
7017;SDS011;3549;42.162;24.726;2023-11-18T12:52:32;2.60;;;2.40;;
7017;SDS011;3549;42.162;24.726;2023-11-18T12:54:58;3.97;;;2.70;;
7017;SDS011;3549;42.162;24.726;2023-11-18T12:57:27;4.17;;;2.40;;
7017;SDS011;3549;42.162;24.726;2023-11-18T12:59:59;4.93;;;2.40;;
7017;SDS011;3549;42.162;24.726;2023-11-18T13:02:25;4.07;;;2.50;;
7017;SDS011;3549;42.162;24.726;2023-11-18T13:04:57;3.10;;;2.00;;
7017;SDS011;3549;42.162;24.726;2023-11-18T13:07:22;2.00;;;1.80;;
7017;SDS011;3549;42.162;24.726;2023-11-18T13:09:50;4.63;;;2.47;;
7017;SDS011;3549;42.162;24.726;2023-11-18T13:12:16;6.53;;;3.57;;
7017;SDS011;3549;42.162;24.726;2023-11-18T13:14:44;5.63;;;3.60;;
7017;SDS011;3549;42.162;24.726;2023-11-18T13:17:16;10.40;;;4.90;;
7017;SDS011;3549;42.162;24.726;2023-11-18T13:19:42;8.60;;;4.67;;
7017;SDS011;3549;42.162;24.726;2023-11-18T13:22:10;21.23;;;11.60;;
7017;SDS011;3549;42.162;24.726;2023-11-18T13:24:36;3.60;;;2.33;;
7017;SDS011;3549;42.162;24.726;2023-11-18T13:27:06;3.57;;;2.87;;
7017;SDS011;3549;42.162;24.726;2023-11-18T13:29:37;2.47;;;2.17;;
7017;SDS011;3549;42.162;24.726;2023-11-18T13:32:11;3.50;;;2.40;;
7017;SDS011;3549;42.162;24.726;2023-11-18T13:34:37;2.60;;;2.20;;
7017;SDS011;3549;42.162;24.726;2023-11-18T13:37:07;3.27;;;2.57;;
7017;SDS011;3549;42.162;24.726;2023-11-18T13:39:37;2.73;;;2.20;;
7017;SDS011;3549;42.162;24.726;2023-11-18T13:42:19;4.90;;;3.30;;
7017;SDS011;3549;42.162;24.726;2023-11-18T13:44:46;2.67;;;2.10;;
7017;SDS011;3549;42.162;24.726;2023-11-18T13:47:13;3.53;;;2.70;;
7017;SDS011;3549;42.162;24.726;2023-11-18T13:49:41;3.27;;;2.50;;
7017;SDS011;3549;42.162;24.726;2023-11-18T13:52:07;3.93;;;3.03;;
7017;SDS011;3549;42.162;24.726;2023-11-18T13:54:36;6.00;;;2.73;;
7017;SDS011;3549;42.162;24.726;2023-11-18T13:57:02;4.77;;;3.10;;
7017;SDS011;3549;42.162;24.726;2023-11-18T13:59:29;8.67;;;5.20;;
7017;SDS011;3549;42.162;24.726;2023-11-18T14:01:55;8.53;;;4.17;;
7017;SDS011;3549;42.162;24.726;2023-11-18T14:04:24;5.43;;;3.60;;
7017;SDS011;3549;42.162;24.726;2023-11-18T14:06:52;3.47;;;2.60;;
7017;SDS011;3549;42.162;24.726;2023-11-18T14:09:30;4.03;;;3.10;;
7017;SDS011;3549;42.162;24.726;2023-11-18T14:12:00;3.20;;;2.23;;
7017;SDS011;3549;42.162;24.726;2023-11-18T14:14:27;5.37;;;3.30;;
7017;SDS011;3549;42.162;24.726;2023-11-18T14:16:53;2.63;;;2.20;;
7017;SDS011;3549;42.162;24.726;2023-11-18T14:19:23;3.57;;;2.57;;
7017;SDS011;3549;42.162;24.726;2023-11-18T14:21:50;6.23;;;3.27;;
7017;SDS011;3549;42.162;24.726;2023-11-18T14:24:16;10.47;;;5.20;;
7017;SDS011;3549;42.162;24.726;2023-11-18T14:26:43;4.90;;;3.20;;
7017;SDS011;3549;42.162;24.726;2023-11-18T14:29:09;9.60;;;5.00;;
7017;SDS011;3549;42.162;24.726;2023-11-18T14:31:36;4.87;;;3.10;;
7017;SDS011;3549;42.162;24.726;2023-11-18T14:34:02;7.20;;;3.60;;
7017;SDS011;3549;42.162;24.726;2023-11-18T14:36:29;5.03;;;2.77;;
7017;SDS011;3549;42.162;24.726;2023-11-18T14:38:54;2.93;;;2.30;;
7017;SDS011;3549;42.162;24.726;2023-11-18T14:41:20;8.70;;;4.43;;
7017;SDS011;3549;42.162;24.726;2023-11-18T14:43:49;6.67;;;3.63;;
7017;SDS011;3549;42.162;24.726;2023-11-18T14:46:15;8.10;;;3.97;;
7017;SDS011;3549;42.162;24.726;2023-11-18T14:48:41;5.57;;;3.23;;
7017;SDS011;3549;42.162;24.726;2023-11-18T14:51:07;5.47;;;2.90;;
7017;SDS011;3549;42.162;24.726;2023-11-18T14:53:33;3.80;;;2.30;;
7017;SDS011;3549;42.162;24.726;2023-11-18T14:56:01;6.13;;;3.17;;
7017;SDS011;3549;42.162;24.726;2023-11-18T14:58:29;8.27;;;4.87;;
7017;SDS011;3549;42.162;24.726;2023-11-18T15:00:55;4.23;;;3.23;;
7017;SDS011;3549;42.162;24.726;2023-11-18T15:03:22;6.47;;;4.40;;
7017;SDS011;3549;42.162;24.726;2023-11-18T15:05:47;6.03;;;2.90;;
7017;SDS011;3549;42.162;24.726;2023-11-18T15:08:13;5.10;;;2.97;;
7017;SDS011;3549;42.162;24.726;2023-11-18T15:10:40;5.73;;;3.60;;
7017;SDS011;3549;42.162;24.726;2023-11-18T15:13:07;3.53;;;2.70;;
7017;SDS011;3549;42.162;24.726;2023-11-18T15:15:37;3.97;;;2.90;;
7017;SDS011;3549;42.162;24.726;2023-11-18T15:18:06;7.20;;;3.50;;
7017;SDS011;3549;42.162;24.726;2023-11-18T15:20:42;3.50;;;2.60;;
7017;SDS011;3549;42.162;24.726;2023-11-18T15:23:08;3.40;;;3.00;;
7017;SDS011;3549;42.162;24.726;2023-11-18T15:25:35;3.97;;;3.00;;
7017;SDS011;3549;42.162;24.726;2023-11-18T15:28:01;4.77;;;3.17;;
7017;SDS011;3549;42.162;24.726;2023-11-18T15:30:27;3.97;;;2.70;;
7017;SDS011;3549;42.162;24.726;2023-11-18T15:32:52;3.13;;;2.50;;
7017;SDS011;3549;42.162;24.726;2023-11-18T15:35:18;3.77;;;2.70;;
7017;SDS011;3549;42.162;24.726;2023-11-18T15:37:46;3.57;;;3.07;;